Letchworth, United Kingdom
Current Conditions -  °F | °C
As of 7:20 AM on Wednesday 26 Nov 2014 (Local Time) from EGGW Reporting Station
Moderate Fog Moderate Fog  
Wind Chill: 45°   Ceiling: 100
Heat Index: 45°   Visibility: 0.18mi
Dew Point: 45°   Wind: 3mph
Humidity: 100%   Direction: NA
Pressure: 29.88"   Gusts: NA
Location:  51.98°N, 0.23°W
Report Text: EGGW 260720Z VRB03KT 0300 R08/0800 FG OVC001 07/07 Q1012
Loading
Personal Weather Stations






























Interactive Weather Map New forecast layout! Learn more

10-Day Weather Forecast

Advertisements
Track Severe Weather on mobile